Time;durP1;ratioP1;P1;durP2;ratioP2;P2;SDS_P1;SDS_P2;PMS_P1;PMS_P2;Temp;Humidity;BMP_temperature;BMP_pressure;BME280_temperature;BME280_humidity;BME280_pressure;Samples;Min_cycle;Max_cycle;Signal;HPM_P1;HPM_P2
2022/05/10 00:01:23;;;;;;;2.80;2.47;;;21.90;97.60;;;;;;4209245;28;20281;-78
2022/05/10 00:03:32;;;;;;;3.67;3.05;;;21.90;97.70;;;;;;4208809;28;20278;-78
2022/05/10 00:05:38;;;;;;;3.20;2.60;;;21.90;97.70;;;;;;4208980;28;20250;-78
2022/05/10 00:07:40;;;;;;;3.80;3.10;;;21.90;97.70;;;;;;4208892;28;20271;-79
2022/05/10 00:09:44;;;;;;;3.70;2.85;;;21.80;97.70;;;;;;4209147;28;20210;-78
2022/05/10 00:11:47;;;;;;;3.17;2.60;;;21.80;97.80;;;;;;4207998;28;20283;-78
2022/05/10 00:13:49;;;;;;;3.40;3.10;;;21.90;97.90;;;;;;4209621;28;20264;-79
2022/05/10 00:15:52;;;;;;;4.53;3.00;;;21.80;97.80;;;;;;4209927;28;20584;-78
2022/05/10 00:17:55;;;;;;;4.03;3.10;;;21.80;98.10;;;;;;4209326;28;20222;-79
2022/05/10 00:19:57;;;;;;;3.75;3.10;;;21.80;97.80;;;;;;4209531;28;21005;-78
2022/05/10 00:22:00;;;;;;;3.88;2.92;;;21.80;97.80;;;;;;4210119;28;20635;-78
2022/05/10 00:24:03;;;;;;;3.30;2.83;;;21.80;97.90;;;;;;4209366;28;20279;-78
2022/05/10 00:26:06;;;;;;;3.17;2.60;;;21.80;97.90;;;;;;4209637;28;20631;-79
2022/05/10 00:28:09;;;;;;;4.20;2.70;;;21.80;97.90;;;;;;4209379;28;20267;-78
2022/05/10 00:30:13;;;;;;;3.47;2.80;;;21.80;97.90;;;;;;4209454;28;20639;-78
2022/05/10 00:32:15;;;;;;;3.33;2.65;;;21.80;98.00;;;;;;4209717;28;20215;-78
2022/05/10 00:34:19;;;;;;;3.53;2.70;;;21.80;98.00;;;;;;4209443;28;20279;-78
2022/05/10 00:36:24;;;;;;;4.05;2.97;;;21.80;98.00;;;;;;4210038;28;20226;-78
2022/05/10 00:38:32;;;;;;;3.20;2.90;;;21.80;98.40;;;;;;4208810;28;20218;-78
2022/05/10 00:40:36;;;;;;;4.25;3.13;;;21.80;98.10;;;;;;4207977;28;20271;-78
2022/05/10 00:42:51;;;;;;;3.08;2.70;;;21.80;98.20;;;;;;4209469;28;20218;-78
2022/05/10 00:44:59;;;;;;;4.63;2.97;;;21.80;98.20;;;;;;4207747;28;20230;-78
2022/05/10 00:47:08;;;;;;;2.75;2.50;;;21.80;98.20;;;;;;4208429;28;20275;-78
2022/05/10 00:49:18;;;;;;;4.28;3.30;;;21.70;98.20;;;;;;4209053;28;20267;-78
2022/05/10 00:51:29;;;;;;;3.53;2.45;;;21.70;98.20;;;;;;4207639;28;20246;-78
2022/05/10 00:53:46;;;;;;;4.88;3.22;;;21.70;98.20;;;;;;4208940;28;20574;-78
2022/05/10 00:55:55;;;;;;;3.55;2.70;;;21.70;98.30;;;;;;4208386;28;20280;-78
2022/05/10 00:58:04;;;;;;;5.85;3.22;;;21.80;98.30;;;;;;4207359;28;20643;-78
2022/05/10 01:00:11;;;;;;;3.47;2.72;;;21.70;98.30;;;;;;4208927;28;20222;-78
2022/05/10 01:02:26;;;;;;;3.83;2.97;;;21.70;98.70;;;;;;4208125;28;20969;-79
2022/05/10 01:04:34;;;;;;;3.75;3.17;;;21.70;98.40;;;;;;4208425;28;20272;-79
2022/05/10 01:06:44;;;;;;;3.47;2.80;;;21.70;98.50;;;;;;4208590;28;20249;-78
2022/05/10 01:08:57;;;;;;;3.88;2.80;;;21.70;98.40;;;;;;4208354;28;20279;-78
2022/05/10 01:11:05;;;;;;;4.57;2.90;;;21.70;98.50;;;;;;4207784;28;20238;-78
2022/05/10 01:13:18;;;;;;;3.40;3.08;;;21.70;98.80;;;;;;4208754;28;20221;-78
2022/05/10 01:15:24;;;;;;;4.43;3.03;;;21.70;98.50;;;;;;4208331;28;20218;-79
2022/05/10 01:17:26;;;;;;;2.95;2.75;;;21.70;98.50;;;;;;4208297;28;20356;-78
2022/05/10 01:19:28;;;;;;;3.28;2.78;;;21.70;98.50;;;;;;4209004;28;20307;-78
2022/05/10 01:21:49;;;;;;;3.30;2.92;;;21.70;98.60;;;;;;4207897;28;20279;-78
2022/05/10 01:24:38;;;;;;;3.88;2.85;;;21.70;98.60;;;;;;4209225;28;20222;-78
2022/05/10 01:26:56;;;;;;;4.55;3.20;;;21.70;98.70;;;;;;4208130;28;20222;-78
2022/05/10 01:29:05;;;;;;;3.83;2.58;;;21.70;98.70;;;;;;4208160;28;20244;-78
2022/05/10 01:31:12;;;;;;;4.10;2.90;;;21.70;98.60;;;;;;4208098;28;20242;-78
2022/05/10 01:33:29;;;;;;;3.58;2.70;;;21.60;98.70;;;;;;4209011;28;20631;-78
2022/05/10 01:35:34;;;;;;;4.72;2.97;;;21.60;98.70;;;;;;4208439;28;20210;-78
2022/05/10 01:37:40;;;;;;;3.88;3.30;;;21.60;98.70;;;;;;4208126;28;20255;-78
2022/05/10 01:39:48;;;;;;;3.80;2.72;;;21.60;99.10;;;;;;4207662;28;20215;-78
2022/05/10 01:41:58;;;;;;;4.07;2.88;;;21.60;98.80;;;;;;4208068;28;20214;-78
2022/05/10 01:44:10;;;;;;;4.30;3.30;;;21.60;98.80;;;;;;4208200;28;20978;-78
2022/05/10 01:46:15;;;;;;;3.42;2.67;;;21.60;98.90;;;;;;4207837;28;20230;-78
2022/05/10 01:48:22;;;;;;;4.63;2.78;;;21.60;98.80;;;;;;4206895;28;20230;-78
2022/05/10 01:50:29;;;;;;;3.67;2.88;;;21.60;98.90;;;;;;4207910;28;20214;-78
2022/05/10 01:52:35;;;;;;;3.72;2.90;;;21.60;98.90;;;;;;4207638;28;20237;-78
2022/05/10 01:55:13;;;;;;;4.88;2.83;;;21.60;98.90;;;;;;4207630;28;20223;-78
2022/05/10 01:57:17;;;;;;;3.38;2.95;;;21.60;98.90;;;;;;4208297;28;20226;-78
2022/05/10 01:59:22;;;;;;;3.70;3.00;;;21.60;98.90;;;;;;4207238;28;20313;-78
2022/05/10 02:01:30;;;;;;;4.22;2.67;;;21.60;98.90;;;;;;4207840;28;20269;-78
2022/05/10 02:03:39;;;;;;;4.65;2.75;;;21.60;98.90;;;;;;4208108;28;20209;-78
2022/05/10 02:05:52;;;;;;;5.15;3.53;;;21.60;98.90;;;;;;4207623;28;20770;-78
2022/05/10 02:08:00;;;;;;;3.78;2.75;;;21.60;99.00;;;;;;4208055;28;20228;-78
2022/05/10 02:10:06;;;;;;;5.47;3.45;;;21.60;99.00;;;;;;4189288;28;20672;-78
2022/05/10 02:12:14;;;;;;;5.15;2.90;;;21.60;98.90;;;;;;4207513;28;20764;-78
2022/05/10 02:14:25;;;;;;;3.83;2.85;;;21.60;99.10;;;;;;4207993;28;20263;-78
2022/05/10 02:16:33;;;;;;;4.05;2.90;;;21.60;99.10;;;;;;4207796;28;20218;-78
2022/05/10 02:18:42;;;;;;;3.50;2.92;;;21.60;99.10;;;;;;4208418;28;20233;-78
2022/05/10 02:20:50;;;;;;;4.78;3.05;;;21.60;99.20;;;;;;4207332;28;20271;-78
2022/05/10 02:22:58;;;;;;;3.67;2.88;;;21.60;99.20;;;;;;4206982;28;20267;-78
2022/05/10 02:25:06;;;;;;;4.60;3.10;;;21.60;99.10;;;;;;4207458;28;20218;-78
2022/05/10 02:27:14;;;;;;;3.72;2.78;;;21.50;99.10;;;;;;4207481;28;20634;-78
2022/05/10 02:29:21;;;;;;;3.72;3.00;;;21.50;99.10;;;;;;4204856;28;20233;-78
2022/05/10 02:31:28;;;;;;;4.68;3.20;;;21.50;99.10;;;;;;4207629;28;20743;-78
2022/05/10 02:33:30;;;;;;;5.57;3.25;;;21.50;99.20;;;;;;4206397;28;20284;-78
2022/05/10 02:35:35;;;;;;;3.47;2.70;;;21.50;99.20;;;;;;4206491;28;20226;-78
2022/05/10 02:37:37;;;;;;;3.88;2.83;;;21.50;99.20;;;;;;4207694;28;20222;-78
2022/05/10 02:39:40;;;;;;;3.83;3.10;;;21.50;99.30;;;;;;4207186;28;20219;-78
2022/05/10 02:41:42;;;;;;;3.95;3.22;;;21.50;99.30;;;;;;4206761;28;20210;-78
2022/05/10 02:43:50;;;;;;;3.70;2.97;;;21.50;99.20;;;;;;4206626;28;20284;-78
2022/05/10 02:45:54;;;;;;;4.93;3.22;;;21.50;99.20;;;;;;4205673;28;20254;-78
2022/05/10 02:48:02;;;;;;;3.33;3.03;;;21.60;99.40;;;;;;4206372;28;21075;-78
2022/05/10 02:50:08;;;;;;;3.72;2.55;;;21.50;99.30;;;;;;4206429;28;20226;-78
2022/05/10 02:52:11;;;;;;;6.88;3.22;;;21.50;99.30;;;;;;4206713;28;20235;-78
2022/05/10 02:54:13;;;;;;;3.90;3.28;;;21.50;99.40;;;;;;4207770;28;20275;-78
2022/05/10 02:56:18;;;;;;;4.53;3.40;;;21.60;99.40;;;;;;4206598;28;20295;-78
2022/05/10 02:58:29;;;;;;;4.78;2.75;;;21.50;99.40;;;;;;4206581;28;20264;-78
2022/05/10 03:00:34;;;;;;;4.13;2.95;;;21.50;99.40;;;;;;4206154;28;20272;-78
2022/05/10 03:02:41;;;;;;;3.00;2.70;;;21.60;99.80;;;;;;4205639;28;20257;-79
2022/05/10 03:04:52;;;;;;;3.65;3.05;;;21.50;99.50;;;;;;4206581;28;20271;-78
2022/05/10 03:06:54;;;;;;;3.70;2.85;;;21.50;99.50;;;;;;4206334;28;20229;-78
2022/05/10 03:08:58;;;;;;;3.58;3.13;;;21.50;99.50;;;;;;4207106;28;20214;-78
2022/05/10 03:11:00;;;;;;;3.53;2.97;;;21.50;99.50;;;;;;4206290;28;20595;-78
2022/05/10 03:13:03;;;;;;;4.18;3.20;;;21.50;99.60;;;;;;4206095;28;20335;-78
2022/05/10 03:15:06;;;;;;;4.18;3.15;;;21.50;99.60;;;;;;4209079;28;20222;-78
2022/05/10 03:17:10;;;;;;;3.83;2.95;;;21.50;99.60;;;;;;4209600;28;20307;-78
2022/05/10 03:19:13;;;;;;;4.63;3.28;;;21.50;99.60;;;;;;4209566;28;20268;-78
2022/05/10 03:21:17;;;;;;;4.90;3.30;;;21.50;99.60;;;;;;4209704;28;20226;-78
2022/05/10 03:23:19;;;;;;;5.47;3.22;;;21.50;99.60;;;;;;4208876;28;20218;-78
2022/05/10 03:25:21;;;;;;;4.93;3.17;;;21.50;99.60;;;;;;4209880;28;20271;-79
2022/05/10 03:27:24;;;;;;;3.67;2.92;;;21.50;99.70;;;;;;4209015;28;20264;-78
2022/05/10 03:29:26;;;;;;;3.60;3.00;;;21.50;99.70;;;;;;4209925;28;20222;-78
2022/05/10 03:31:29;;;;;;;3.08;2.78;;;21.50;99.70;;;;;;4210007;28;20226;-78
2022/05/10 03:33:31;;;;;;;3.70;3.17;;;21.50;99.60;;;;;;4209619;28;20319;-78
2022/05/10 03:35:34;;;;;;;4.35;2.97;;;21.50;99.70;;;;;;4208628;28;20585;-78
2022/05/10 03:37:37;;;;;;;4.97;3.03;;;21.50;99.80;;;;;;4208853;28;20264;-78
2022/05/10 03:39:40;;;;;;;4.05;3.33;;;21.50;99.70;;;;;;4208795;28;20260;-78
2022/05/10 03:41:42;;;;;;;3.63;2.90;;;21.50;99.80;;;;;;4209518;28;20218;-78
2022/05/10 03:43:44;;;;;;;4.65;3.10;;;21.50;99.80;;;;;;4209190;28;20223;-78
2022/05/10 03:45:47;;;;;;;3.13;2.83;;;21.50;99.80;;;;;;4209385;28;20627;-78
2022/05/10 03:47:51;;;;;;;5.30;3.42;;;21.50;99.80;;;;;;4209517;28;20218;-78
2022/05/10 03:49:55;;;;;;;4.03;3.20;;;21.50;99.90;;;;;;4209228;28;21689;-78
2022/05/10 03:51:57;;;;;;;3.38;2.92;;;21.50;99.90;;;;;;4209101;28;20237;-78
2022/05/10 03:54:01;;;;;;;3.95;2.88;;;21.50;99.80;;;;;;4209113;28;20747;-78
2022/05/10 03:56:04;;;;;;;5.25;3.50;;;21.50;99.80;;;;;;4209151;28;20281;-78
2022/05/10 03:58:07;;;;;;;4.78;3.50;;;21.50;99.80;;;;;;4209176;28;20230;-78
2022/05/10 04:00:13;;;;;;;3.30;3.00;;;21.50;99.90;;;;;;4208911;28;20282;-78
2022/05/10 04:02:16;;;;;;;3.63;3.10;;;21.50;99.90;;;;;;4209705;28;20218;-78
2022/05/10 04:04:18;;;;;;;3.70;3.25;;;21.50;99.90;;;;;;4209291;28;20663;-78
2022/05/10 04:06:21;;;;;;;4.47;3.33;;;21.50;99.90;;;;;;4209568;28;20652;-78
2022/05/10 04:08:24;;;;;;;7.38;3.40;;;21.50;99.90;;;;;;4209330;28;20293;-78
2022/05/10 04:10:28;;;;;;;4.18;3.08;;;21.50;99.90;;;;;;4208005;28;20627;-78
2022/05/10 04:12:30;;;;;;;3.60;2.97;;;21.50;99.90;;;;;;4208815;28;20230;-78
2022/05/10 04:14:33;;;;;;;4.68;3.63;;;21.50;99.90;;;;;;4208825;28;20231;-78
2022/05/10 04:16:35;;;;;;;4.10;3.58;;;21.50;99.90;;;;;;4209184;28;20218;-78
2022/05/10 04:18:37;;;;;;;4.32;2.90;;;21.50;99.90;;;;;;4209020;28;20215;-78
2022/05/10 04:20:40;;;;;;;6.28;3.10;;;21.50;99.90;;;;;;4208924;28;20351;-77
2022/05/10 04:22:42;;;;;;;4.28;3.20;;;21.50;99.90;;;;;;4208892;28;20215;-78
2022/05/10 04:24:45;;;;;;;3.58;2.97;;;21.50;99.90;;;;;;4208913;28;20214;-78
2022/05/10 04:26:49;;;;;;;4.65;3.10;;;21.50;99.90;;;;;;4208161;28;20691;-78
2022/05/10 04:28:52;;;;;;;3.53;3.22;;;21.40;99.90;;;;;;4208416;28;21529;-79
2022/05/10 04:30:54;;;;;;;5.35;3.38;;;21.50;99.90;;;;;;4208869;28;20222;-78
2022/05/10 04:32:56;;;;;;;4.32;3.33;;;21.50;99.90;;;;;;4208504;28;20250;-78
2022/05/10 04:34:59;;;;;;;5.30;3.53;;;21.50;99.90;;;;;;4208383;28;20288;-78
2022/05/10 04:37:01;;;;;;;4.43;3.55;;;21.50;99.90;;;;;;4208813;28;20267;-78
2022/05/10 04:39:04;;;;;;;3.85;3.30;;;21.40;99.90;;;;;;4209421;28;20610;-78
2022/05/10 04:43:28;;;;;;;4.25;3.30;;;21.40;99.90;;;;;;4210119;28;20206;-78
2022/05/10 04:45:30;;;;;;;3.40;3.10;;;21.40;99.90;;;;;;4208358;28;20222;-78
2022/05/10 04:47:32;;;;;;;4.47;3.60;;;21.40;99.90;;;;;;4208942;28;20260;-78
2022/05/10 04:49:34;;;;;;;3.83;3.33;;;21.50;99.90;;;;;;4209358;28;20215;-78
2022/05/10 04:51:38;;;;;;;5.82;4.03;;;21.40;99.90;;;;;;4208893;28;20226;-78
2022/05/10 04:53:40;;;;;;;4.47;3.60;;;21.40;99.90;;;;;;4209566;28;20234;-78
2022/05/10 04:55:42;;;;;;;4.47;3.63;;;21.50;99.90;;;;;;4208429;28;20630;-77
2022/05/10 04:57:45;;;;;;;4.97;3.50;;;21.40;99.90;;;;;;4208371;28;20296;-78
2022/05/10 04:59:49;;;;;;;6.70;3.30;;;21.50;99.90;;;;;;4208589;28;20628;-78
2022/05/10 05:01:51;;;;;;;3.95;3.08;;;21.50;99.90;;;;;;4207650;28;20210;-79
2022/05/10 05:03:55;;;;;;;4.80;3.60;;;21.50;99.90;;;;;;4208245;28;20211;-78
2022/05/10 05:05:58;;;;;;;3.58;3.28;;;21.50;99.90;;;;;;4205673;28;20242;-78
2022/05/10 05:08:00;;;;;;;4.05;3.25;;;21.50;99.90;;;;;;4208280;28;20736;-78
2022/05/10 05:10:03;;;;;;;5.43;3.13;;;21.50;99.90;;;;;;4208250;28;20214;-78
2022/05/10 05:12:06;;;;;;;4.93;3.63;;;21.50;99.90;;;;;;4208013;28;20222;-78
2022/05/10 05:14:10;;;;;;;4.65;3.35;;;21.50;99.90;;;;;;4208289;28;20280;-78
2022/05/10 05:16:14;;;;;;;5.18;3.40;;;21.50;99.90;;;;;;4207740;28;20272;-78
2022/05/10 05:18:16;;;;;;;5.20;3.72;;;21.50;99.90;;;;;;4207757;28;20272;-78
2022/05/10 05:20:19;;;;;;;3.90;3.50;;;21.50;99.90;;;;;;4207473;28;20280;-78
2022/05/10 05:22:21;;;;;;;3.85;3.25;;;21.50;99.90;;;;;;4205710;28;20214;-78
2022/05/10 05:24:24;;;;;;;3.45;3.00;;;21.50;99.90;;;;;;4207004;28;20207;-78
2022/05/10 05:26:26;;;;;;;5.32;3.45;;;21.50;99.90;;;;;;4207827;28;20218;-78
2022/05/10 05:28:29;;;;;;;5.20;3.80;;;21.50;99.90;;;;;;4207733;28;20226;-78
2022/05/10 05:30:32;;;;;;;4.20;3.08;;;21.50;99.90;;;;;;4207805;28;20214;-78
2022/05/10 05:32:36;;;;;;;4.05;3.28;;;21.50;99.90;;;;;;4207446;28;20284;-78
2022/05/10 05:34:38;;;;;;;4.75;3.67;;;21.60;99.90;;;;;;4208273;28;20238;-78
2022/05/10 05:36:40;;;;;;;4.82;3.95;;;21.60;99.90;;;;;;4207310;28;20271;-78
2022/05/10 05:38:43;;;;;;;5.50;3.85;;;21.60;99.90;;;;;;4207899;28;20214;-78
2022/05/10 05:40:46;;;;;;;4.80;3.28;;;21.50;99.90;;;;;;4208853;28;20637;-78
2022/05/10 05:42:49;;;;;;;4.78;3.72;;;21.50;99.90;;;;;;4207676;28;21283;-78
2022/05/10 05:44:51;;;;;;;4.75;3.50;;;21.60;99.90;;;;;;4207297;28;20222;-78
2022/05/10 05:46:53;;;;;;;4.70;3.83;;;21.60;99.90;;;;;;4207858;28;20308;-78
2022/05/10 05:48:59;;;;;;;7.55;4.05;;;21.60;99.90;;;;;;4207612;28;20210;-78
2022/05/10 05:51:02;;;;;;;6.88;3.60;;;21.60;99.90;;;;;;4208061;28;20276;-78
2022/05/10 05:53:05;;;;;;;3.80;3.35;;;21.60;99.90;;;;;;4207120;28;20218;-78
2022/05/10 05:55:09;;;;;;;4.03;3.20;;;21.60;99.90;;;;;;4206397;28;20358;-78
2022/05/10 05:57:11;;;;;;;5.45;3.25;;;21.60;99.90;;;;;;4207440;28;20222;-78
2022/05/10 05:59:14;;;;;;;6.45;3.90;;;21.60;99.90;;;;;;4206695;28;20275;-78
2022/05/10 06:01:17;;;;;;;5.53;3.42;;;21.60;99.90;;;;;;4207417;28;20214;-78
2022/05/10 06:03:19;;;;;;;5.25;4.10;;;21.60;99.90;;;;;;4207156;28;20264;-78
2022/05/10 06:05:27;;;;;;;4.18;3.50;;;21.60;99.90;;;;;;4207368;28;20703;-78
2022/05/10 06:07:29;;;;;;;4.45;3.35;;;21.60;99.90;;;;;;4207738;28;20260;-78
2022/05/10 06:09:32;;;;;;;4.47;3.72;;;21.70;99.90;;;;;;4206906;28;20267;-78
2022/05/10 06:11:34;;;;;;;6.78;3.80;;;21.60;99.90;;;;;;4206964;28;20561;-78
2022/05/10 06:13:37;;;;;;;5.80;3.55;;;21.70;99.90;;;;;;4206684;28;20238;-78
2022/05/10 06:15:39;;;;;;;5.25;3.33;;;21.60;99.90;;;;;;4206936;28;20219;-78
2022/05/10 06:17:44;;;;;;;5.53;3.67;;;21.70;99.90;;;;;;4207312;28;20271;-78
2022/05/10 06:19:47;;;;;;;4.72;3.15;;;21.70;99.90;;;;;;4206034;28;20226;-78
2022/05/10 06:21:51;;;;;;;4.28;3.13;;;21.60;99.90;;;;;;4205972;28;20214;-78
2022/05/10 06:23:53;;;;;;;4.68;3.50;;;21.70;99.90;;;;;;4206321;28;20272;-78
2022/05/10 06:25:56;;;;;;;4.35;3.20;;;21.70;99.90;;;;;;4206474;28;20263;-78
2022/05/10 06:27:58;;;;;;;4.53;3.45;;;21.70;99.90;;;;;;4206994;28;20275;-78
2022/05/10 06:30:01;;;;;;;4.68;3.28;;;21.70;99.90;;;;;;4206793;28;20540;-78
2022/05/10 06:32:03;;;;;;;4.60;3.50;;;21.70;99.90;;;;;;4206917;28;20299;-78
2022/05/10 06:34:06;;;;;;;7.45;3.63;;;21.70;99.90;;;;;;4206570;28;20295;-77
2022/05/10 06:36:08;;;;;;;5.60;3.80;;;21.70;99.90;;;;;;4206804;28;20238;-78
2022/05/10 06:38:16;;;;;;;5.07;3.15;;;21.70;99.90;;;;;;4206343;28;20259;-78
2022/05/10 06:40:20;;;;;;;4.45;3.40;;;21.70;99.90;;;;;;4206052;28;20279;-78
2022/05/10 06:42:23;;;;;;;5.05;3.70;;;21.70;99.90;;;;;;4206210;28;20214;-78
2022/05/10 06:44:26;;;;;;;5.47;3.80;;;21.70;99.90;;;;;;4205788;28;20230;-78
2022/05/10 06:46:32;;;;;;;3.42;3.05;;;21.70;99.90;;;;;;4206578;28;20291;-78
2022/05/10 06:48:34;;;;;;;6.63;3.75;;;21.70;99.90;;;;;;4207089;28;20222;-78
2022/05/10 06:50:38;;;;;;;10.23;4.13;;;21.70;99.90;;;;;;4207361;28;20214;-76
2022/05/10 06:52:41;;;;;;;5.85;4.40;;;21.80;99.90;;;;;;4208284;28;20218;-76
2022/05/10 06:54:45;;;;;;;9.95;4.38;;;21.70;99.90;;;;;;4208334;28;20291;-77
2022/05/10 06:56:48;;;;;;;6.57;4.22;;;21.50;99.90;;;;;;4208547;28;20215;-76
2022/05/10 06:58:51;;;;;;;5.55;4.10;;;21.50;99.90;;;;;;4208534;28;20287;-76
2022/05/10 07:00:53;;;;;;;5.97;4.07;;;21.60;99.90;;;;;;4208907;28;20271;-75
2022/05/10 07:02:56;;;;;;;7.45;4.13;;;21.70;99.90;;;;;;4206852;28;20215;-76
2022/05/10 07:04:58;;;;;;;7.80;3.97;;;21.70;99.90;;;;;;4209655;28;20223;-77
2022/05/10 07:07:00;;;;;;;9.27;4.63;;;21.80;99.90;;;;;;4209139;28;20691;-76
2022/05/10 07:09:03;;;;;;;10.07;5.00;;;21.90;99.90;;;;;;4210730;28;20214;-78
2022/05/10 07:11:11;;;;;;;7.43;3.97;;;21.90;99.90;;;;;;4211338;28;20620;-75
2022/05/10 07:13:15;;;;;;;6.93;4.32;;;21.90;99.90;;;;;;4208852;28;20217;-77
2022/05/10 07:15:20;;;;;;;7.93;4.47;;;21.70;99.90;;;;;;4209141;28;20234;-76
2022/05/10 07:17:23;;;;;;;8.02;4.22;;;21.90;99.90;;;;;;4202781;28;20275;-76
2022/05/10 07:19:26;;;;;;;7.50;4.22;;;21.90;99.90;;;;;;4207595;28;20264;-75
2022/05/10 07:21:29;;;;;;;6.20;4.07;;;22.00;99.90;;;;;;4200381;28;20633;-77
2022/05/10 07:23:32;;;;;;;10.15;5.15;;;22.00;99.90;;;;;;4208383;28;20210;-74
2022/05/10 07:25:34;;;;;;;7.43;4.50;;;22.10;99.90;;;;;;4210697;28;20340;-76
2022/05/10 07:27:39;;;;;;;9.57;4.90;;;22.00;99.90;;;;;;4208599;28;20269;-76
2022/05/10 07:29:43;;;;;;;5.32;4.10;;;22.00;99.90;;;;;;4204965;28;20218;-76
2022/05/10 07:31:45;;;;;;;9.60;4.35;;;22.10;99.90;;;;;;4208337;28;20214;-76
2022/05/10 07:33:47;;;;;;;6.38;4.40;;;22.00;99.90;;;;;;4210056;28;20670;-77
2022/05/10 07:38:10;;;;;;;7.38;4.45;;;22.10;99.90;;;;;;4207487;28;20222;-77
2022/05/10 07:40:13;;;;;;;8.27;4.30;;;22.20;99.90;;;;;;4203166;28;20280;-76
2022/05/10 07:42:15;;;;;;;7.80;4.22;;;22.10;99.90;;;;;;4203675;28;20264;-75
2022/05/10 07:44:19;;;;;;;8.35;4.82;;;22.20;99.90;;;;;;4209308;28;20215;-75
2022/05/10 07:46:21;;;;;;;7.50;4.00;;;22.10;99.90;;;;;;4200603;28;20219;-75
2022/05/10 07:48:24;;;;;;;10.10;4.57;;;22.10;99.90;;;;;;4206795;28;20263;-75
2022/05/10 07:50:26;;;;;;;7.57;4.38;;;22.20;99.90;;;;;;4193894;28;20331;-74
2022/05/10 07:52:29;;;;;;;12.90;4.55;;;22.20;99.90;;;;;;4194130;28;20223;-76
2022/05/10 07:54:31;;;;;;;6.13;4.40;;;22.10;99.90;;;;;;4205892;28;20238;-76
2022/05/10 07:56:33;;;;;;;5.00;3.58;;;22.00;99.90;;;;;;4202251;28;20214;-77
2022/05/10 07:58:36;;;;;;;9.07;4.63;;;22.00;99.90;;;;;;4199861;28;20227;-75
2022/05/10 08:00:41;;;;;;;10.43;4.25;;;22.00;99.90;;;;;;4202067;28;20659;-76
2022/05/10 08:02:45;;;;;;;8.30;4.43;;;22.10;99.90;;;;;;4193412;28;20218;-75
2022/05/10 08:04:47;;;;;;;11.27;4.65;;;22.10;99.90;;;;;;4202438;28;20268;-75
2022/05/10 08:06:50;;;;;;;6.72;4.50;;;22.00;99.90;;;;;;4194689;28;20267;-74
2022/05/10 08:08:53;;;;;;;6.65;4.18;;;22.00;99.90;;;;;;4205367;28;20264;-77
2022/05/10 08:10:56;;;;;;;9.05;4.45;;;22.10;99.90;;;;;;4203349;28;21593;-76
2022/05/10 08:12:58;;;;;;;8.38;4.00;;;22.10;99.90;;;;;;4203952;28;20247;-77
2022/05/10 08:15:01;;;;;;;11.57;4.65;;;22.10;99.90;;;;;;4206158;28;20238;-79
2022/05/10 08:17:04;;;;;;;8.05;4.18;;;22.10;99.90;;;;;;4204881;28;20226;-80
2022/05/10 08:19:07;;;;;;;9.18;4.65;;;22.10;99.90;;;;;;4201780;28;20222;-73
2022/05/10 08:21:09;;;;;;;9.57;4.85;;;22.10;99.90;;;;;;4203323;28;20226;-74
2022/05/10 08:23:16;;;;;;;10.43;4.68;;;22.10;99.90;;;;;;4200537;28;20256;-74
2022/05/10 08:25:18;;;;;;;11.50;4.13;;;22.00;99.90;;;;;;4203706;28;20211;-74
2022/05/10 08:27:21;;;;;;;9.45;4.45;;;22.10;99.90;;;;;;4200484;28;20239;-74
2022/05/10 08:29:23;;;;;;;6.40;4.25;;;22.10;99.90;;;;;;4196072;28;20369;-73
2022/05/10 08:31:25;;;;;;;6.85;4.15;;;22.20;99.90;;;;;;4196671;28;20273;-73
2022/05/10 08:33:31;;;;;;;11.98;4.47;;;22.30;99.90;;;;;;4198304;28;20265;-74
2022/05/10 08:35:34;;;;;;;8.73;4.20;;;22.10;99.90;;;;;;4201240;28;20765;-74
2022/05/10 08:37:37;;;;;;;7.22;4.15;;;22.10;99.90;;;;;;4204065;28;20222;-74
2022/05/10 08:39:39;;;;;;;8.82;3.70;;;22.20;99.90;;;;;;4204944;28;20272;-76
2022/05/10 08:41:47;;;;;;;9.07;4.20;;;22.30;99.90;;;;;;4201176;28;21004;-76
2022/05/10 08:43:55;;;;;;;8.57;4.25;;;22.30;99.90;;;;;;4203167;28;20251;-77
2022/05/10 08:45:58;;;;;;;10.57;4.38;;;22.40;99.90;;;;;;4204111;28;20852;-77
2022/05/10 08:48:00;;;;;;;7.68;4.05;;;22.30;99.90;;;;;;4206085;28;20297;-76
2022/05/10 08:50:07;;;;;;;7.03;4.93;;;22.40;99.90;;;;;;4207485;28;20218;-75
2022/05/10 08:52:12;;;;;;;9.57;4.53;;;22.40;99.90;;;;;;4204586;28;20312;-76
2022/05/10 08:54:14;;;;;;;10.40;5.03;;;22.50;99.90;;;;;;4202350;28;20750;-74
2022/05/10 08:56:23;;;;;;;8.35;4.88;;;22.50;99.90;;;;;;4206262;28;20238;-75
2022/05/10 08:58:40;;;;;;;6.68;4.35;;;22.60;99.90;;;;;;4202648;28;20218;-76
2022/05/10 09:00:47;;;;;;;7.50;5.10;;;22.50;99.90;;;;;;4201771;28;20218;-75
2022/05/10 09:02:54;;;;;;;7.25;5.05;;;22.40;99.90;;;;;;4204324;28;20264;-75
2022/05/10 09:05:06;;;;;;;9.90;5.03;;;22.40;99.90;;;;;;4200979;28;20214;-77
2022/05/10 09:07:20;;;;;;;9.43;5.20;;;22.50;99.90;;;;;;4203088;28;20711;-78
2022/05/10 09:09:27;;;;;;;8.75;5.47;;;22.50;99.90;;;;;;4204165;28;20966;-77
2022/05/10 09:11:40;;;;;;;9.65;4.88;;;22.60;99.90;;;;;;4204585;28;20207;-79
2022/05/10 09:13:48;;;;;;;7.60;4.70;;;22.80;99.90;;;;;;4206914;28;20558;-79
2022/05/10 09:15:55;;;;;;;8.95;4.88;;;22.80;99.90;;;;;;4207442;28;20551;-78
2022/05/10 09:17:58;;;;;;;11.48;5.25;;;22.90;99.90;;;;;;4203114;28;20227;-77
2022/05/10 09:20:00;;;;;;;8.32;4.78;;;22.90;99.90;;;;;;4205790;28;20268;-78
2022/05/10 09:22:07;;;;;;;8.02;4.85;;;22.90;99.90;;;;;;4205348;28;20218;-77
2022/05/10 09:24:23;;;;;;;9.45;5.15;;;22.90;99.90;;;;;;4202503;28;20263;-78
2022/05/10 09:26:34;;;;;;;7.32;5.00;;;22.90;99.90;;;;;;4205395;28;20222;-77
2022/05/10 09:28:41;;;;;;;11.23;4.95;;;23.00;99.90;;;;;;4200463;28;20654;-76
2022/05/10 09:34:45;;;;;;;9.40;5.05;;;23.00;99.90;;;;;;4203768;28;20217;-78
2022/05/10 09:35:51;;;;;;;11.50;4.90;;;22.90;99.90;;;;;;4205971;28;20613;-76
2022/05/10 09:38:06;;;;;;;8.07;4.65;;;23.00;99.90;;;;;;4200141;28;20307;-81
2022/05/10 09:40:25;;;;;;;10.65;5.47;;;22.90;99.90;;;;;;4205514;28;20223;-81
2022/05/10 09:42:30;;;;;;;9.70;5.20;;;22.90;99.90;;;;;;4204082;28;20218;-79
2022/05/10 09:44:33;;;;;;;11.32;4.88;;;22.90;99.90;;;;;;4204804;28;20263;-82
2022/05/10 09:46:36;;;;;;;12.48;5.72;;;22.90;99.90;;;;;;4204618;28;20280;-83
2022/05/10 09:48:40;;;;;;;10.57;4.57;;;22.90;99.90;;;;;;4202328;28;20259;-83
2022/05/10 09:50:45;;;;;;;8.63;4.82;;;22.90;99.90;;;;;;4201706;28;20218;-84
2022/05/10 09:52:49;;;;;;;9.35;4.78;;;22.90;99.90;;;;;;4200700;28;20252;-80
2022/05/10 09:54:53;;;;;;;7.88;4.80;;;23.00;99.90;;;;;;4202331;28;20211;-79
2022/05/10 09:56:59;;;;;;;6.78;5.22;;;23.00;99.90;;;;;;4203512;28;20284;-85
2022/05/10 09:59:04;;;;;;;8.48;5.30;;;23.00;99.90;;;;;;4203211;28;20203;-76
2022/05/10 10:01:11;;;;;;;9.57;4.95;;;23.00;99.90;;;;;;4200482;28;20234;-76
2022/05/10 10:03:27;;;;;;;11.25;4.65;;;22.90;99.90;;;;;;4204209;28;20400;-75
2022/05/10 10:05:31;;;;;;;7.13;4.57;;;22.90;99.90;;;;;;4204144;28;20267;-75
2022/05/10 10:07:34;;;;;;;10.75;4.82;;;22.90;99.90;;;;;;4199940;28;20272;-76
2022/05/10 10:09:38;;;;;;;6.30;5.03;;;23.00;99.90;;;;;;4202466;28;20211;-75
2022/05/10 10:11:41;;;;;;;10.52;4.72;;;23.00;99.90;;;;;;4202555;28;20267;-76
2022/05/10 10:13:46;;;;;;;8.02;4.95;;;23.00;99.90;;;;;;4203873;28;20227;-76
2022/05/10 10:15:49;;;;;;;7.28;4.55;;;23.10;99.90;;;;;;4191489;28;20230;-76
2022/05/10 10:17:55;;;;;;;8.13;5.15;;;23.10;99.90;;;;;;4202586;28;20280;-77
2022/05/10 10:20:02;;;;;;;9.27;5.10;;;23.20;99.90;;;;;;4206400;28;20307;-80
2022/05/10 10:22:08;;;;;;;8.95;5.03;;;23.10;99.90;;;;;;4203256;28;20226;-78
2022/05/10 10:24:20;;;;;;;6.80;4.80;;;23.10;99.90;;;;;;4206817;28;20222;-76
2022/05/10 10:26:32;;;;;;;5.97;4.55;;;23.20;99.90;;;;;;4205015;28;20210;-76
2022/05/10 10:28:39;;;;;;;11.13;5.45;;;23.20;99.90;;;;;;4202915;28;20735;-80
2022/05/10 10:30:49;;;;;;;10.02;5.20;;;23.20;99.90;;;;;;4206665;28;20226;-75
2022/05/10 10:32:58;;;;;;;7.20;5.03;;;23.20;99.90;;;;;;4205769;28;20299;-82
2022/05/10 10:35:17;;;;;;;7.88;4.50;;;23.30;99.90;;;;;;4205215;28;20279;-78
2022/05/10 10:37:26;;;;;;;7.22;4.85;;;23.30;99.90;;;;;;4208510;28;20267;-78
2022/05/10 10:39:34;;;;;;;7.60;4.70;;;23.20;99.90;;;;;;4203474;28;20267;-80
2022/05/10 10:41:43;;;;;;;5.82;4.60;;;23.20;99.90;;;;;;4206753;28;20218;-76
2022/05/10 10:43:51;;;;;;;7.85;4.55;;;23.20;99.90;;;;;;4204025;28;20214;-76
2022/05/10 10:46:02;;;;;;;9.93;4.43;;;23.20;99.90;;;;;;4205752;28;20266;-76
2022/05/10 10:48:25;;;;;;;9.05;4.78;;;23.30;99.90;;;;;;4205542;28;20218;-77
2022/05/10 10:50:31;;;;;;;5.93;4.75;;;23.30;99.90;;;;;;4205107;28;20264;-75
2022/05/10 10:52:34;;;;;;;6.57;4.65;;;23.30;99.90;;;;;;4204234;28;20219;-77
2022/05/10 10:54:37;;;;;;;8.25;4.70;;;23.20;99.90;;;;;;4205660;28;20327;-77
2022/05/10 10:56:50;;;;;;;8.55;4.78;;;23.10;99.90;;;;;;4205062;28;20292;-77
2022/05/10 10:59:05;;;;;;;10.10;4.88;;;23.20;99.90;;;;;;4202467;28;20214;-77